• Join FlightAware (Why Join?)
  • Login
  • US Flag 
09:42PM EDT


 

Airport Tracker/Info


-or-


 

Live Flight TrackerFlight Track Log ✈ N717AN ✈ 27-Jul-2013 ✈ EGLL / LHR - KDFW

Flight Track Log - Related Links

Times and Time Zones

All times are in EDT time to prevent confusion due to time zone crossing. See the N717AN flight status page for this flight to view local times or setup timezone preferences in your user account.

Time Position Orientation Groundspeed Altitude Reporting Facility
EDT Latitude Longitude Course Direction KTS MPH feet Rate Location/Type
05:24AM 51.4650 -0.4290 89° East 192 221 800  Level FlightAware
05:24AM 51.4660 -0.4070 86° East 194 223 1,400 2,220 Climbing FlightAware
05:25AM 51.4715 -0.3873 66° East 202 232 1,900 1,680 Climbing FlightAware ADS-B
05:25AM 51.4756 -0.3788 52° Northeast 211 243 2,000 900 Climbing FlightAware ADS-B
05:25AM 51.4939 -0.3441 50° Northeast 243 280 2,400 1,680 Climbing FlightAware ADS-B
05:25AM 51.5086 -0.3164 50° Northeast 258 297 3,300 2,460 Climbing FlightAware ADS-B
05:26AM 51.5218 -0.2907 50° Northeast 265 305 3,900 2,340 Climbing FlightAware ADS-B
05:26AM 51.5257 -0.2808 58° Northeast 269 310 4,200 2,280 Climbing FlightAware ADS-B
05:26AM 51.5300 -0.2697 58° Northeast 272 313 4,400 2,280 Climbing FlightAware ADS-B
05:26AM 51.5348 -0.2596 53° Northeast 274 315 4,700 2,700 Climbing FlightAware ADS-B
05:26AM 51.5395 -0.2518 46° Northeast 276 318 4,900 2,400 Climbing FlightAware ADS-B
05:26AM 51.5446 -0.2455 38° Northeast 278 320 5,100 1,800 Climbing FlightAware ADS-B
05:26AM 51.5493 -0.2411 30° Northeast 283 326 5,200 1,500 Climbing FlightAware ADS-B
05:26AM 51.5538 -0.2380 23° Northeast 285 328 5,300 2,220 Climbing FlightAware ADS-B
05:26AM 51.5595 -0.2352 17° North 287 330 5,500 1,980 Climbing FlightAware ADS-B
05:27AM 51.5657 -0.2337 North 289 333 5,600 1,500 Climbing FlightAware ADS-B
05:27AM 51.5705 -0.2334 North 291 335 5,700 1,500 Climbing FlightAware ADS-B
05:27AM 51.5759 -0.2339 356° North 290 334 5,800 1,980 Climbing FlightAware ADS-B
05:27AM 51.5830 -0.2358 350° North 289 333 6,000 1,380 Climbing FlightAware ADS-B
05:27AM 51.5930 -0.2398 346° North 285 328 6,100 240 Climbing FlightAware ADS-B
05:27AM 51.6138 -0.2492 344° North 284 327 6,100  Level FlightAware ADS-B
05:27AM 51.6355 -0.2594 344° North 283 326 6,100  Level FlightAware ADS-B
05:28AM 51.6484 -0.2657 343° North 283 326 6,100  Level FlightAware ADS-B
05:28AM 51.6580 -0.2718 338° Northwest 284 327 6,100  Level FlightAware ADS-B
05:28AM 51.6618 -0.2748 334° Northwest 284 327 6,100  Level FlightAware ADS-B
05:28AM 51.6795 -0.2914 330° Northwest 281 323 6,100 360 Level FlightAware ADS-B
05:28AM 51.6986 -0.3102 329° Northwest 278 320 6,300 1,080 Climbing FlightAware ADS-B
05:29AM 51.7154 -0.3263 329° Northwest 283 326 6,700 2,400 Climbing FlightAware ADS-B
05:29AM 51.7346 -0.3441 330° Northwest 281 323 7,600 2,880 Climbing FlightAware ADS-B
05:29AM 51.7535 -0.3607 331° Northwest 282 325 8,300 2,220 Climbing FlightAware ADS-B
05:29AM 51.7718 -0.3768 331° Northwest 292 336 8,800 2,100 Climbing FlightAware ADS-B
05:30AM 51.7899 -0.3929 331° Northwest 296 341 9,400 2,040 Climbing FlightAware ADS-B
05:30AM 51.8344 -0.4345 330° Northwest 299 344 10,600 1,740 Climbing FlightAware ADS-B
05:31AM 51.8747 -0.4726 330° Northwest 341 392 11,400 1,500 Climbing FlightAware ADS-B
05:31AM 51.8973 -0.4956 328° Northwest 356 410 11,800 1,800 Climbing FlightAware ADS-B
05:31AM 51.9115 -0.5112 326° Northwest 361 415 12,200 1,800 Climbing FlightAware ADS-B
05:31AM 51.9293 -0.5293 328° Northwest 374 430 12,500 1,620 Climbing FlightAware ADS-B
05:32AM 51.9777 -0.5727 331° Northwest 400 460 13,400 2,040 Climbing FlightAware ADS-B
05:32AM 52.0298 -0.6166 333° Northwest 414 476 14,600 2,280 Climbing FlightAware ADS-B
05:33AM 52.0844 -0.6621 333° Northwest 428 493 15,800 2,400 Climbing FlightAware ADS-B
05:33AM 52.1192 -0.6907 333° Northwest 432 497 16,700 2,340 Climbing FlightAware ADS-B
05:34AM 52.1749 -0.7381 332° Northwest 443 510 17,800 2,220 Climbing FlightAware ADS-B
05:34AM 52.2302 -0.7843 333° Northwest 449 517 19,000 2,100 Climbing FlightAware ADS-B
05:35AM 52.2877 -0.8319 333° Northwest 463 533 19,900 1,740 Climbing FlightAware ADS-B
05:35AM 52.3502 -0.8843 333° Northwest 477 549 20,800 1,920 Climbing FlightAware ADS-B
05:36AM 52.4151 -0.9392 333° Northwest 483 556 22,000 2,100 Climbing FlightAware ADS-B
05:37AM 52.4842 -0.9976 333° Northwest 489 563 23,200 1,920 Climbing FlightAware ADS-B
05:37AM 52.5493 -1.0530 333° Northwest 495 570 24,200 1,800 Climbing FlightAware ADS-B
05:38AM 52.6162 -1.1101 333° Northwest 500 575 25,200 1,860 Climbing FlightAware ADS-B
05:38AM 52.6778 -1.1629 333° Northwest 502 578 26,200 1,620 Climbing FlightAware ADS-B
05:39AM 52.7418 -1.2180 332° Northwest 510 587 26,900 1,200 Climbing FlightAware ADS-B
05:39AM 52.8130 -1.2790 333° Northwest 523 602 27,500 1,200 Climbing FlightAware
05:39AM 52.8375 -1.3005 332° Northwest 520 598 27,800 1,380 Climbing FlightAware ADS-B
05:40AM 52.9043 -1.3584 332° Northwest 490 564 28,500 1,500 Climbing FlightAware UK
05:40AM 52.9316 -1.3820 332° Northwest 527 606 28,900 1,320 Climbing FlightAware ADS-B
05:41AM 53.0028 -1.4441 332° Northwest 537 618 29,500 1,500 Climbing FlightAware ADS-B
05:42AM 53.1684 -1.5890 332° Northwest 541 623 31,600 1,380 Climbing FlightAware ADS-B
05:42AM 53.2382 -1.6505 332° Northwest 542 624 32,000 300 Climbing FlightAware ADS-B
05:43AM 53.3146 -1.7181 332° Northwest 488 562 32,000  Level FlightAware UK
05:43AM 53.3410 -1.7410 332° Northwest 540 621 32,000  Level FlightAware
05:44AM 53.4264 -1.8177 332° Northwest 540 621 32,000  Level FlightAware ADS-B
05:44AM 53.5056 -1.8884 332° Northwest 540 621 32,000  Level FlightAware ADS-B
05:45AM 53.5966 -1.9702 332° Northwest 539 620 32,000  Level FlightAware ADS-B
05:46AM 53.7095 -2.0717 332° Northwest 539 620 32,000 -120 Level FlightAware ADS-B
05:47AM 53.8167 -2.1576 332° Northwest 486 559 31,900  Descending FlightAware UK
05:47AM 53.8180 -2.1580 332° Northwest 541 623 32,000  Climbing FlightAware
05:47AM 53.9145 -2.2240 332° Northwest 486 559 31,900  Descending FlightAware UK
05:48AM 53.9280 -2.2330 332° Northwest 544 626 32,000 120 Climbing FlightAware
05:48AM 54.0102 -2.2965 332° Northwest 486 559 32,000  Level FlightAware UK
05:48AM 54.0360 -2.3180 332° Northwest 538 619 32,000  Level FlightAware
05:49AM 54.1130 -2.3820 334° Northwest 537 618 32,000  Level FlightAware
05:50AM 54.2150 -2.4660 334° Northwest 536 617 32,000  Level FlightAware
05:50AM 54.3070 -2.5430 334° Northwest 536 617 32,000 -120 Level FlightAware
05:51AM 54.3964 -2.6176 334° Northwest 486 559 31,900  Descending FlightAware UK
05:51AM 54.4000 -2.6200 334° Northwest 535 616 32,000  Climbing FlightAware
05:52AM 54.4894 -2.6961 334° Northwest 486 559 31,900  Descending FlightAware UK
05:52AM 54.4930 -2.6990 334° Northwest 534 615 32,000 120 Climbing FlightAware
05:53AM 54.5860 -2.7770 334° Northwest 533 613 32,000  Level FlightAware
05:53AM 54.6790 -2.8560 334° Northwest 532 612 32,000  Level FlightAware
05:54AM 54.7580 -2.9220 334° Northwest 532 612 32,000  Level FlightAware
05:54AM 54.8460 -2.9970 334° Northwest 529 609 32,000  Level FlightAware
05:55AM 54.9330 -3.0930 328° Northwest 518 596 32,000  Level FlightAware
05:56AM 55.0160 -3.2110 321° Northwest 509 586 32,000  Level FlightAware
05:57AM 55.0940 -3.3270 320° Northwest 508 585 32,000  Level FlightAware
05:57AM 55.1710 -3.4400 320° Northwest 508 585 32,000 -120 Level FlightAware
05:58AM 55.2438 -3.5509 320° Northwest 484 557 31,900  Descending FlightAware UK
05:58AM 55.2450 -3.5530 320° Northwest 506 582 32,000 120 Climbing FlightAware
05:59AM 55.3220 -3.6700 319° Northwest 499 574 32,000  Level FlightAware
05:59AM 55.3820 -3.7610 319° Northwest 498 573 32,000 -120 Level FlightAware
06:00AM 55.4545 -3.8723 319° Northwest 484 557 31,900  Descending FlightAware UK
06:00AM 55.4480 -3.8620 319° Northwest 503 579 32,000 120 Climbing FlightAware
06:01AM 55.5070 -3.9540 319° Northwest 502 578 32,000  Level FlightAware
06:01AM 55.5907 -4.0820 319° Northwest 490 564 32,000  Level FlightAware UK
06:01AM 55.5940 -4.0880 319° Northwest 495 570 32,000  Level FlightAware
06:02AM 55.6520 -4.1780 319° Northwest 501 577 32,000  Level FlightAware
06:03AM 55.7320 -4.3020 319° Northwest 503 579 32,000  Level FlightAware
06:04AM 55.8120 -4.4270 319° Northwest 501 577 32,000 -120 Level FlightAware
06:04AM 55.8749 -4.5265 319° Northwest 494 568 31,900  Descending FlightAware UK
06:04AM 55.8720 -4.5220 319° Northwest 500 575 32,000  Climbing FlightAware
06:05AM 55.9381 -4.6253 319° Northwest 492 566 31,900  Descending FlightAware UK
06:05AM 55.9480 -4.6390 319° Northwest 500 575 32,000 120 Climbing FlightAware
06:05AM 56.0130 -4.7420 318° Northwest 502 578 32,000  Level FlightAware
06:06AM 56.0910 -4.8640 319° Northwest 501 577 32,000  Level FlightAware
06:07AM 56.1630 -4.9770 319° Northwest 499 574 32,000  Level FlightAware
06:08AM 56.2410 -5.1010 319° Northwest 499 574 32,000  Level FlightAware
06:08AM 56.3110 -5.2140 319° Northwest 499 574 32,000 -180 Level FlightAware
06:08AM 56.3163 -5.2220 319° Northwest 490 564 31,900 -240 Descending FlightAware UK
06:09AM 56.3685 -5.3058 319° Northwest 492 566 31,900 120 Level FlightAware UK
06:09AM 56.3900 -5.3390 319° Northwest 501 577 32,000 60 Climbing FlightAware
06:10AM 56.4860 -5.4950 318° Northwest 501 577 32,000 -120 Level FlightAware
06:10AM 56.5466 -5.5934 318° Northwest 490 564 31,900  Descending FlightAware UK
06:10AM 56.5480 -5.5960 318° Northwest 501 577 32,000 120 Climbing FlightAware
06:11AM 56.6300 -5.7300 318° Northwest 507 583 32,000  Level FlightAware
06:12AM 56.7027 -5.8495 318° Northwest 490 564 32,000  Level FlightAware UK
06:12AM 56.7050 -5.8530 318° Northwest 507 583 32,000 -300 Level FlightAware
06:13AM 56.7720 -5.9650 318° Northwest 505 581 31,800 -720 Descending FlightAware
06:13AM 56.8480 -6.0960 317° Northwest 500 575 31,000 -660 Descending FlightAware
06:14AM 56.9060 -6.1960 317° Northwest 504 580 31,000 -180 Level FlightAware
06:14AM 56.9175 -6.2153 317° Northwest 492 566 30,900 -180 Descending FlightAware UK
06:15AM 56.9794 -6.3171 317° Northwest 492 566 30,900 120 Level FlightAware UK
06:15AM 56.9940 -6.3410 317° Northwest 502 578 31,000 120 Climbing FlightAware
06:15AM 57.0620 -6.4550 318° Northwest 502 578 31,000  Level FlightAware
06:16AM 57.1310 -6.5720 318° Northwest 503 579 31,000 -180 Level FlightAware
06:16AM 57.1332 -6.5758 318° Northwest 492 566 30,900 -240 Descending FlightAware UK
06:17AM 57.1842 -6.6630 318° Northwest 492 566 30,900 120 Level FlightAware UK
06:17AM 57.1990 -6.6880 318° Northwest 500 575 31,000 120 Climbing FlightAware
06:17AM 57.2660 -6.8040 317° Northwest 501 577 31,000 -120 Level FlightAware
06:18AM 57.3363 -6.9246 317° Northwest 490 564 30,900  Descending FlightAware UK
06:18AM 57.3300 -6.9140 317° Northwest 503 579 31,000 180 Climbing FlightAware
06:19AM 57.3872 -7.0126 317° Northwest 490 564 31,000  Level FlightAware UK
06:19AM 57.4040 -7.0410 317° Northwest 502 578 31,000  Level FlightAware
06:19AM 57.4560 -7.1320 317° Northwest 503 579 31,000  Level FlightAware
06:20AM 57.5320 -7.2650 317° Northwest 495 570 31,000 -180 Level FlightAware
06:20AM 57.5394 -7.2781 317° Northwest 492 566 30,900  Descending FlightAware UK
06:21AM 57.5898 -7.3666 317° Northwest 490 564 31,000 120 Climbing FlightAware UK
06:21AM 57.6000 -7.3840 317° Northwest 493 567 31,000  Level FlightAware
06:22AM 57.6750 -7.5160 317° Northwest 492 566 31,000 -120 Level FlightAware
06:22AM 57.7397 -7.6321 317° Northwest 490 564 30,900  Descending FlightAware UK
06:22AM 57.7500 -7.6500 317° Northwest 493 567 31,000 120 Climbing FlightAware
06:23AM 57.8150 -7.7670 316° Northwest 494 568 31,000  Level FlightAware
06:24AM 57.8820 -7.8880 316° Northwest 496 571 31,000 -120 Level FlightAware
06:24AM 57.9493 -8.0090 316° Northwest 492 566 30,900  Descending FlightAware UK
06:24AM 57.9500 -8.0100 316° Northwest 495 570 31,000 120 Climbing FlightAware
06:25AM 58.0140 -8.1270 316° Northwest 494 568 31,000  Level FlightAware
06:26AM 58.0830 -8.2520 316° Northwest 494 568 31,000  Level FlightAware
06:26AM 58.1390 -8.3560 316° Northwest 498 573 31,000  Level FlightAware
06:27AM 58.2072 -8.4815 316° Northwest 490 564 31,000  Level FlightAware UK
06:27AM 58.2140 -8.4950 316° Northwest 497 572 31,000  Level FlightAware
06:28AM 58.2790 -8.6150 316° Northwest 498 573 31,000  Level FlightAware
06:28AM 58.3460 -8.7390 316° Northwest 497 572 31,000  Level FlightAware
06:28AM 58.3546 -8.7558 316° Northwest 492 566 31,000 -240 Level FlightAware UK
06:29AM 58.4036 -8.8479 316° Northwest 490 564 30,900  Descending FlightAware UK
06:29AM 58.4180 -8.8760 316° Northwest 496 571 31,000 120 Climbing FlightAware
06:30AM 58.4720 -8.9770 316° Northwest 496 571 31,000  Level FlightAware
06:30AM 58.5570 -9.1390 315° West 497 572 31,000  Level FlightAware
06:31AM 58.6480 -9.3130 315° West 499 574 31,000  Level FlightAware
06:32AM 58.7130 -9.4390 315° West 499 574 31,000  Level FlightAware
06:33AM 58.7800 -9.5670 315° West 490 564 31,000  Level FlightAware
06:33AM 58.8530 -9.7100 315° West 489 563 31,000  Level FlightAware
06:34AM 58.9160 -9.8350 314° West 489 563 31,000  Level FlightAware
06:35AM 58.9780 -9.9590 314° West 495 570 31,000  Level FlightAware
06:35AM 59.0280 -10.1110 303° West 494 568 31,000  Level FlightAware
06:36AM 59.0720 -10.2850 296° West 494 568 31,000  Level FlightAware
06:37AM 59.1170 -10.4710 295° West 494 568 31,000  Level FlightAware
06:38AM 59.1580 -10.6350 296° West 495 570 31,000  Level FlightAware
06:39AM 59.2080 -10.8390 296° West 492 566 31,000  Level FlightAware
06:39AM 59.2590 -11.0030 301° West 490 564 31,000  Level FlightAware
06:40AM 59.3160 -11.2170 298° West 491 565 31,000  Level FlightAware
06:41AM 59.3660 -11.4230 296° West 497 572 31,000  Level FlightAware
06:42AM 59.4040 -11.5870 295° West 498 573 31,000  Level FlightAware
06:42AM 59.4330 -11.7120 295° West 497 572 31,000  Level FlightAware
06:43AM 59.4710 -11.8800 294° West 497 572 31,000  Level FlightAware
06:44AM 59.5000 -12.0070 294° West 497 572 31,000  Level FlightAware
06:44AM 59.5380 -12.1760 294° West 497 572 31,000  Level FlightAware
06:45AM 59.5660 -12.3030 294° West 497 572 31,000  Level FlightAware
06:46AM 59.6050 -12.4760 294° West 497 572 31,000  Level FlightAware
06:46AM 59.6340 -12.6030 294° West 497 572 31,000  Level FlightAware
06:47AM 59.6820 -12.8150 294° West 497 572 31,000  Level FlightAware
06:48AM 59.7120 -12.9490 294° West 497 572 31,000  Level FlightAware
06:49AM 59.7590 -13.1620 294° West 497 572 31,000  Level FlightAware
06:50AM 59.7980 -13.3320 295° West 497 572 31,000  Level FlightAware
06:51AM 59.8260 -13.4600 294° West 497 572 31,000  Level FlightAware
06:51AM 59.8640 -13.6310 294° West 497 572 31,000  Level FlightAware
06:54AM 59.9272 -14.1971 283° West  Level Estimated
06:55AM 59.9553 -14.4571 282° West  Level Estimated
06:56AM 59.9829 -14.7176 282° West  Level Estimated
06:57AM 60.0100 -14.9784 282° West  Level Estimated
06:58AM 60.0366 -15.2397 282° West  Level Estimated
06:59AM 60.0626 -15.5014 281° West  Level Estimated
07:00AM 60.0882 -15.7636 281° West  Level Estimated
07:01AM 60.1132 -16.0261 281° West  Level Estimated
07:02AM 60.1377 -16.2890 281° West  Level Estimated
07:03AM 60.1617 -16.5523 280° West  Level Estimated
07:04AM 60.1852 -16.8160 280° West  Level Estimated
07:05AM 60.2081 -17.0801 280° West  Level Estimated
07:06AM 60.2305 -17.3445 280° West  Level Estimated
07:07AM 60.2524 -17.6093 280° West  Level Estimated
07:08AM 60.2738 -17.8744 279° West  Level Estimated
07:09AM 60.2946 -18.1399 279° West  Level Estimated
07:10AM 60.3149 -18.4057 279° West  Level Estimated
07:10AM 60.8700 -19.0550 279° West 507 583 31,000  Level FlightAware
07:11AM 60.3347 -18.6718 279° West  Level Estimated
07:11AM 60.8970 -19.2240 288° West 507 583 31,000  Level FlightAware
07:12AM 60.9350 -19.4630 288° West 507 583 31,000  Level FlightAware
07:13AM 60.9590 -19.6190 288° West 507 583 31,000  Level FlightAware
07:14AM 60.9890 -19.8110 288° West 507 583 31,000  Level FlightAware
07:14AM 61.0370 -20.0720 291° West 507 583 31,000  Level FlightAware
07:15AM 61.0780 -20.2400 297° West 506 582 31,000  Level FlightAware
07:15AM 61.1090 -20.3640 297° West 506 582 31,000  Level FlightAware
07:16AM 61.1680 -20.5990 298° West 508 585 31,000  Level FlightAware
07:17AM 61.2090 -20.7710 296° West 508 585 31,000  Level FlightAware
07:17AM 61.2460 -20.9230 297° West 508 585 31,000  Level FlightAware
07:18AM 61.3030 -21.1600 297° West 508 585 31,000  Level FlightAware
07:19AM 61.3480 -21.3490 296° West 507 583 31,000  Level FlightAware
07:20AM 61.3930 -21.5390 296° West 507 583 31,000  Level FlightAware
07:21AM 61.4390 -21.7360 296° West 508 585 31,000  Level FlightAware
07:21AM 61.4760 -21.8990 295° West 508 585 31,000  Level FlightAware
07:22AM 61.5210 -22.0950 296° West 509 586 31,000  Level FlightAware
07:23AM 61.5660 -22.2890 296° West 510 587 31,000  Level FlightAware
07:23AM 61.6060 -22.4700 295° West 511 588 31,000  Level FlightAware
07:24AM 61.6500 -22.6650 295° West 513 590 31,000  Level FlightAware
07:25AM 61.6890 -22.8410 295° West 515 593 31,000  Level FlightAware
07:25AM 61.7320 -23.0370 295° West 516 594 31,000  Level FlightAware
07:26AM 61.7750 -23.2330 295° West 517 595 31,000  Level FlightAware
07:27AM 61.8170 -23.4310 294° West 519 597 31,000  Level FlightAware
07:27AM 61.8520 -23.5950 294° West 520 598 31,000  Level FlightAware
07:28AM 61.8970 -23.8060 294° West 522 601 31,000  Level FlightAware
07:29AM 61.9360 -23.9900 294° West 523 602 31,000  Level FlightAware
07:29AM 61.9750 -24.1800 294° West 524 603 31,000  Level FlightAware
07:30AM 62.0140 -24.3700 294° West 522 601 31,000  Level FlightAware
07:31AM 62.0520 -24.5540 294° West 519 597 31,000  Level FlightAware
07:31AM 62.0900 -24.7410 294° West 517 595 31,000  Level FlightAware
07:32AM 62.1290 -24.9370 293° West 515 593 31,000  Level FlightAware
07:33AM 62.1660 -25.1220 293° West 514 592 31,000  Level FlightAware
07:34AM 62.2050 -25.3230 293° West 511 588 31,000  Level FlightAware
07:34AM 62.2420 -25.5100 293° West 511 588 31,000  Level FlightAware
07:35AM 62.2800 -25.7110 292° West 511 588 31,000  Level FlightAware
07:36AM 62.3200 -25.9180 293° West 510 587 31,000  Level FlightAware
07:36AM 62.3490 -26.0740 292° West 512 589 31,000  Level FlightAware
07:37AM 62.3800 -26.2360 292° West 512 589 31,000  Level FlightAware
07:38AM 62.4160 -26.4300 292° West 512 589 31,000  Level FlightAware
07:38AM 62.4340 -26.5270 292° West 512 589 31,000  Level FlightAware
07:39AM 62.4910 -26.8430 291° West 512 589 31,000  Level FlightAware
07:40AM 62.5260 -27.0340 292° West 512 589 31,000  Level FlightAware
07:40AM 62.5620 -27.2390 291° West 514 592 31,000  Level FlightAware
07:41AM 62.5970 -27.4390 291° West 516 594 31,000  Level FlightAware
07:42AM 62.6320 -27.6350 291° West 516 594 31,000  Level FlightAware
07:42AM 62.6690 -27.8500 291° West 516 594 31,000  Level FlightAware
07:43AM 62.7090 -28.0840 291° West 517 595 31,000  Level FlightAware
07:44AM 62.7440 -28.2900 290° West 518 596 31,000  Level FlightAware
07:45AM 62.7770 -28.4880 290° West 519 597 31,000  Level FlightAware
07:45AM 62.8060 -28.6680 289° West 519 597 31,000  Level FlightAware
07:46AM 62.8380 -28.8610 290° West 520 598 31,000  Level FlightAware
07:47AM 62.8730 -29.0780 290° West 520 598 31,000  Level FlightAware
07:47AM 62.9020 -29.2560 290° West 521 600 31,000  Level FlightAware
07:48AM 62.9340 -29.4620 289° West 522 601 31,000  Level FlightAware
07:49AM 62.9690 -29.6870 289° West 524 603 31,000  Level FlightAware
07:49AM 63.0010 -29.8900 289° West 524 603 31,000  Level FlightAware
07:50AM 63.0350 -30.1170 288° West 525 604 31,000  Level FlightAware
07:51AM 63.0660 -30.3290 288° West 525 604 31,000  Level FlightAware
07:52AM 63.0890 -30.4850 288° West 525 604 31,000  Level FlightAware
07:52AM 63.1200 -30.6980 288° West 525 604 31,000  Level FlightAware
07:53AM 63.1430 -30.8540 288° West 525 604 31,000  Level FlightAware
07:54AM 63.1740 -31.0630 288° West 525 604 31,000  Level FlightAware
07:54AM 63.1960 -31.2200 287° West 525 604 31,000  Level FlightAware
07:55AM 63.2270 -31.4290 288° West 525 604 31,000  Level FlightAware
07:56AM 63.2500 -31.5860 288° West 525 604 31,000  Level FlightAware
07:57AM 63.2810 -31.8000 288° West 525 604 31,000  Level FlightAware
07:57AM 63.3040 -31.9570 288° West 525 604 31,000  Level FlightAware
07:58AM 63.3330 -32.1580 288° West 525 604 31,000  Level FlightAware
07:59AM 63.3560 -32.3160 288° West 525 604 31,000  Level FlightAware
07:59AM 63.3870 -32.5260 288° West 525 604 31,000  Level FlightAware
08:01AM 63.0000 -30.0000 287° West 513 590 31,000  Level ETMS Enhanced Traffic Management System
08:02AM 63.3559 -33.1549 264° West  Level Estimated
08:03AM 63.3403 -33.4515 263° West  Level Estimated
08:04AM 63.3241 -33.7478 263° West  Level Estimated
08:05AM 63.3072 -34.0438 263° West  Level Estimated
08:06AM 63.2897 -34.3394 263° West  Level Estimated
08:07AM 63.6181 -35.2256 282° West 513 590 31,000  Level FlightAware Transoceanic
08:08AM 63.6484 -35.5397 282° West 513 590 31,000  Level FlightAware Transoceanic
08:09AM 63.6781 -35.8544 282° West 513 590 31,000  Level FlightAware Transoceanic
08:10AM 63.7070 -36.1698 282° West 513 590 31,000  Level FlightAware Transoceanic
08:11AM 63.7353 -36.4858 281° West 513 590 31,000  Level FlightAware Transoceanic
08:12AM 63.7629 -36.8024 281° West 513 590 31,000  Level FlightAware Transoceanic
08:13AM 63.7897 -37.1197 281° West 513 590 31,000  Level FlightAware Transoceanic
08:14AM 63.8159 -37.4375 280° West 513 590 31,000  Level FlightAware Transoceanic
08:15AM 63.8414 -37.7559 280° West 513 590 31,000  Level FlightAware Transoceanic
08:16AM 63.8662 -38.0749 280° West 513 590 31,000  Level FlightAware Transoceanic
08:17AM 63.8903 -38.3945 280° West 513 590 31,000  Level FlightAware Transoceanic
08:18AM 63.9136 -38.7145 279° West 513 590 31,000  Level FlightAware Transoceanic
08:19AM 63.9363 -39.0352 279° West 513 590 31,000  Level FlightAware Transoceanic
08:20AM 63.9582 -39.3563 279° West 513 590 31,000  Level FlightAware Transoceanic
08:21AM 63.9795 -39.6779 278° West 513 590 31,000  Level FlightAware Transoceanic
08:22AM 63.9481 -39.9746 257° West  Level Estimated
08:23AM 63.9160 -40.2712 256° West  Level Estimated
08:24AM 63.8833 -40.5671 256° West  Level Estimated
08:25AM 63.8501 -40.8624 256° West  Level Estimated
08:25AM 64.0000 -40.0000 274° West 492 566 31,000  Level ETMS Enhanced Traffic Management System
08:26AM 63.8162 -41.1569 256° West  Level Estimated
08:27AM 63.7817 -41.4507 255° West  Level Estimated
08:28AM 63.7467 -41.7438 255° West  Level Estimated
08:29AM 63.7110 -42.0361 255° West  Level Estimated
08:30AM 63.6748 -42.3277 254° West  Level Estimated
08:31AM 64.0695 -42.8089 272° West 492 566 31,000  Level FlightAware Transoceanic
08:32AM 64.0739 -43.1217 272° West 492 566 31,000  Level FlightAware Transoceanic
08:33AM 64.0776 -43.4346 271° West 492 566 31,000  Level FlightAware Transoceanic
08:34AM 64.0806 -43.7476 271° West 492 566 31,000  Level FlightAware Transoceanic
08:35AM 64.0829 -44.0606 271° West 492 566 31,000  Level FlightAware Transoceanic
08:36AM 64.0846 -44.3737 271° West 492 566 31,000  Level FlightAware Transoceanic
08:37AM 64.0856 -44.6869 270° West 492 566 31,000  Level FlightAware Transoceanic
08:38AM 64.0860 -45.0000 270° West 492 566 31,000  Level FlightAware Transoceanic
08:39AM 64.0856 -45.3131 270° West 492 566 31,000  Level FlightAware Transoceanic
08:40AM 64.0846 -45.6263 269° West 492 566 31,000  Level FlightAware Transoceanic
08:41AM 64.0829 -45.9394 269° West 492 566 31,000  Level FlightAware Transoceanic
08:42AM 64.0806 -46.2524 269° West 492 566 31,000  Level FlightAware Transoceanic
08:43AM 64.0776 -46.5654 269° West 492 566 31,000  Level FlightAware Transoceanic
08:44AM 64.0739 -46.8783 268° West 492 566 31,000  Level FlightAware Transoceanic
08:45AM 64.0695 -47.1911 268° West 492 566 31,000  Level FlightAware Transoceanic
08:46AM 64.0645 -47.5039 268° West 492 566 31,000  Level FlightAware Transoceanic
08:47AM 64.0587 -47.8164 267° West 492 566 31,000  Level FlightAware Transoceanic
08:48AM 64.0524 -48.1289 267° West 492 566 31,000  Level FlightAware Transoceanic
08:49AM 64.0453 -48.4412 267° West 492 566 31,000  Level FlightAware Transoceanic
08:49AM 64.0500 -48.6167 246° West 490 564 31,000  Level Gander Center
08:50AM 64.0376 -48.7534 267° West 492 566 31,000  Level FlightAware Transoceanic
08:51AM 64.0292 -49.0653 266° West 492 566 31,000  Level FlightAware Transoceanic
08:52AM 64.0201 -49.3771 266° West 492 566 31,000  Level FlightAware Transoceanic
08:53AM 64.0104 -49.6887 266° West 492 566 31,000  Level FlightAware Transoceanic
08:54AM 63.9558 -49.9682 246° West  Level Estimated
08:55AM 64.0000 -50.0000 262° West 483 556 31,000  Level ETMS Enhanced Traffic Management System
08:55AM 63.9740 -50.4070 246° West 495 570 31,000  Level FlightAware
08:55AM 63.9620 -50.5830 261° West 493 567 31,000  Level FlightAware
08:56AM 63.9470 -50.8060 261° West 491 565 31,000  Level FlightAware
08:57AM 63.9330 -51.0120 261° West 489 563 31,000  Level FlightAware
08:57AM 63.9170 -51.2350 261° West 489 563 31,000  Level FlightAware
08:58AM 63.9030 -51.4340 261° West 489 563 31,000  Level FlightAware
08:59AM 63.8870 -51.6460 260° West 488 562 31,000  Level FlightAware
08:59AM 63.8710 -51.8670 261° West 489 563 31,000  Level FlightAware
09:00AM 63.8630 -51.9670 262° West 489 563 31,000  Level FlightAware
09:01AM 63.8390 -52.2720 260° West 489 563 31,000  Level FlightAware
09:01AM 63.8230 -52.4740 260° West 488 562 31,000  Level FlightAware
09:02AM 63.8050 -52.6940 260° West 487 560 31,000  Level FlightAware
09:03AM 63.7890 -52.8870 259° West 487 560 31,000  Level FlightAware
09:03AM 63.7720 -53.0910 259° West 486 559 31,000  Level FlightAware
09:04AM 63.7530 -53.3010 259° West 485 558 31,000  Level FlightAware
09:05AM 63.7380 -53.4570 258° West 485 558 31,000  Level FlightAware
09:06AM 63.7190 -53.6590 258° West 485 558 31,000  Level FlightAware
09:06AM 63.7050 -53.8110 258° West 485 558 31,000  Level FlightAware
09:07AM 63.6810 -54.0670 258° West 485 558 31,000  Level FlightAware
09:08AM 63.6670 -54.2190 258° West 485 558 31,000  Level FlightAware
09:09AM 63.6470 -54.4250 258° West 485 558 31,000  Level FlightAware
09:09AM 63.6330 -54.5760 258° West 485 558 31,000  Level FlightAware
09:10AM 63.6140 -54.7780 258° West 485 558 31,000  Level FlightAware
09:11AM 63.5990 -54.9330 258° West 485 558 31,000  Level FlightAware
09:12AM 63.5760 -55.1760 258° West 485 558 31,000  Level FlightAware
09:13AM 63.5530 -55.4230 258° West 485 558 31,000  Level FlightAware
09:14AM 63.5280 -55.6830 258° West 485 558 31,000  Level FlightAware
09:14AM 63.4833 -56.2000 258° West 490 564 31,000  Level Gander Center
09:15AM 63.4500 -56.5000 256° West 460 529 31,000  Level Gander Center
09:16AM 63.4167 -56.7667 255° West 480 552 31,000  Level Gander Center
09:17AM 63.3833 -57.0667 256° West 480 552 31,000  Level Gander Center
09:18AM 63.3667 -57.3667 263° West 480 552 31,000  Level Gander Center
09:19AM 63.3167 -57.6333 247° West 480 552 31,000  Level Gander Center
09:20AM 63.3000 -57.9333 263° West 480 552 31,000  Level Gander Center
09:21AM 63.2500 -58.0667 230° Southwest 480 552 31,000  Level Montreal Center
09:22AM 63.2167 -58.3500 255° West 490 564 31,000  Level Montreal Center
09:23AM 63.1833 -58.6333 256° West 480 552 31,000  Level Montreal Center
09:24AM 63.1500 -58.9667 258° West 490 564 31,000  Level Montreal Center
09:25AM 63.1000 -59.2167 246° West 480 552 31,000  Level Montreal Center
09:26AM 63.0667 -59.5000 256° West 480 552 31,000  Level Montreal Center
09:27AM 63.0333 -59.7833 256° West 490 564 31,000  Level Montreal Center
09:28AM 63.0000 -60.0667 256° West 490 564 31,000  Level Montreal Center
09:29AM 62.9333 -60.3667 244° Southwest 490 564 31,000  Level Montreal Center
09:30AM 62.9000 -60.6500 256° West 490 564 31,000  Level Montreal Center
09:31AM 62.8667 -60.9333 256° West 490 564 31,000  Level Montreal Center
09:32AM 62.8000 -61.2167 243° Southwest 490 564 31,000  Level Montreal Center
09:33AM 62.7667 -61.5000 256° West 490 564 31,000  Level Montreal Center
09:34AM 62.7333 -61.7833 256° West 490 564 31,000  Level Montreal Center
09:35AM 62.6833 -62.0167 245° Southwest 490 564 31,000  Level Montreal Center
09:36AM 62.6333 -62.3000 249° West 490 564 31,000  Level Montreal Center
09:37AM 62.5833 -62.5833 249° West 490 564 31,000 1,020 Level Montreal Center
09:38AM 62.5333 -62.8667 249° West 490 564 33,100 1,920 Climbing Montreal Center
09:39AM 62.4833 -63.1500 249° West 490 564 34,900 1,380 Climbing Montreal Center
09:40AM 62.4333 -63.4167 248° West 480 552 35,900 540 Climbing Montreal Center
09:41AM 62.3667 -63.6667 240° Southwest 490 564 36,000  Climbing Montreal Center
09:42AM 62.3333 -63.9333 255° West 490 564 36,000  Level Montreal Center
09:43AM 62.2833 -64.2167 249° West 490 564 36,000  Level Montreal Center
09:44AM 62.2167 -64.4833 242° Southwest 480 552 36,000  Level Montreal Center
09:45AM 62.1667 -64.7167 245° Southwest 480 552 36,000  Level Montreal Center
09:46AM 62.1333 -65.0000 256° West 490 564 36,000  Level Montreal Center
09:47AM 62.0667 -65.3000 245° Southwest 490 564 36,000  Level Montreal Center
09:48AM 62.0167 -65.5333 246° West 480 552 36,000  Level Montreal Center
09:49AM 61.9667 -65.8000 248° West 490 564 36,000  Level Montreal Center
09:50AM 61.9000 -66.0833 244° Southwest 490 564 36,000  Level Montreal Center
09:51AM 61.8500 -66.3500 248° West 490 564 36,000  Level Montreal Center
09:52AM 61.8000 -66.5667 244° Southwest 490 564 36,000  Level Montreal Center
09:53AM 61.7333 -66.8500 244° Southwest 490 564 36,000  Level Montreal Center
09:54AM 61.7000 -67.1000 254° West 490 564 36,000  Level Montreal Center
09:55AM 61.6500 -67.4000 251° West 490 564 36,000  Level Montreal Center
09:56AM 61.6167 -67.7000 257° West 490 564 36,000  Level Montreal Center
09:57AM 61.5833 -67.9500 254° West 490 564 36,000  Level Montreal Center
09:58AM 61.5500 -68.2333 256° West 480 552 36,000  Level Montreal Center
09:59AM 61.5000 -68.5000 249° West 490 564 36,000  Level Montreal Center
10:00AM 61.4500 -68.7500 247° West 490 564 36,000  Level Montreal Center
10:01AM 61.4167 -69.0500 257° West 490 564 36,000  Level Montreal Center
10:02AM 61.3833 -69.3000 255° West 490 564 36,000  Level Montreal Center
10:03AM 61.3333 -69.6000 251° West 490 564 36,000  Level Montreal Center
10:04AM 61.2833 -69.8833 250° West 500 575 36,000  Level Montreal Center
10:05AM 61.2000 -70.1000 231° Southwest 500 575 36,000  Level Montreal Center
10:06AM 61.1333 -70.3667 243° Southwest 500 575 36,000  Level Montreal Center
10:07AM 61.0667 -70.5833 238° Southwest 490 564 36,000  Level Montreal Center
10:08AM 61.0000 -70.8333 241° Southwest 520 598 36,000  Level Montreal Center
10:09AM 60.9167 -71.0833 236° Southwest 510 587 36,000  Level Montreal Center
10:10AM 60.8500 -71.3500 243° Southwest 510 587 36,000  Level Montreal Center
10:11AM 60.7667 -71.6000 236° Southwest 510 587 36,000  Level Montreal Center
10:12AM 60.6833 -71.8167 232° Southwest 510 587 36,000  Level Montreal Center
10:13AM 60.6167 -72.0667 242° Southwest 510 587 36,000  Level Montreal Center
10:14AM 60.5333 -72.3000 234° Southwest 500 575 36,000  Level Montreal Center
10:15AM 60.4667 -72.5500 242° Southwest 500 575 36,000  Level Montreal Center
10:16AM 60.3833 -72.7667 232° Southwest 500 575 36,000  Level Montreal Center
10:17AM 60.3000 -73.0167 236° Southwest 500 575 36,000  Level Montreal Center
10:18AM 60.2167 -73.2500 234° Southwest 500 575 36,000  Level Montreal Center
10:19AM 60.1500 -73.5000 242° Southwest 500 575 36,000  Level Montreal Center
10:20AM 60.0667 -73.7000 230° Southwest 500 575 36,000  Level Montreal Center
10:21AM 59.9833 -73.9500 236° Southwest 500 575 36,000  Level Montreal Center
10:22AM 59.9000 -74.1833 235° Southwest 500 575 36,000  Level Montreal Center
10:23AM 59.8167 -74.3833 230° Southwest 500 575 36,000  Level Montreal Center
10:24AM 59.7333 -74.6333 237° Southwest 510 587 36,000  Level Montreal Center
10:25AM 59.6667 -74.8667 241° Southwest 510 587 36,000  Level Montreal Center
10:26AM 59.5833 -75.1000 235° Southwest 510 587 36,000  Level Montreal Center
10:27AM 59.5000 -75.3333 235° Southwest 510 587 36,000  Level Montreal Center
10:28AM 59.4000 -75.5667 230° Southwest 520 598 36,000  Level Montreal Center
10:29AM 59.3167 -75.8000 235° Southwest 520 598 36,000  Level Montreal Center
10:30AM 59.2333 -76.0167 233° Southwest 520 598 36,000  Level Montreal Center
10:31AM 59.1500 -76.2167 231° Southwest 520 598 36,000  Level Montreal Center
10:32AM 59.0500 -76.4500 230° Southwest 510 587 36,000  Level Montreal Center
10:33AM 58.9667 -76.6833 235° Southwest 510 587 36,000  Level Montreal Center
10:34AM 58.8833 -76.9000 233° Southwest 510 587 36,000  Level Montreal Center
10:35AM 58.8000 -77.1333 235° Southwest 510 587 36,000  Level Montreal Center
10:36AM 58.7167 -77.3500 234° Southwest 510 587 36,000  Level Montreal Center
10:37AM 58.6333 -77.5333 229° Southwest 510 587 36,000  Level Montreal Center
10:38AM 58.5500 -77.7667 236° Southwest 500 575 36,000  Level Montreal Center
10:39AM 58.4500 -77.9833 229° Southwest 500 575 36,000  Level Montreal Center
10:40AM 58.3667 -78.2000 234° Southwest 510 587 36,000  Level Montreal Center
10:41AM 58.2833 -78.3833 229° Southwest 510 587 36,000  Level Montreal Center
10:42AM 58.2000 -78.6000 234° Southwest 500 575 36,000  Level Montreal Center
10:43AM 58.0833 -78.8167 225° Southwest 510 587 36,000  Level Montreal Center
10:44AM 58.0000 -79.0333 234° Southwest 510 587 36,000  Level Montreal Center
10:45AM 57.9167 -79.2500 234° Southwest 510 587 36,000  Level Montreal Center
10:46AM 57.8167 -79.4333 224° Southwest 510 587 36,000  Level Montreal Center
10:47AM 57.7333 -79.6500 234° Southwest 510 587 36,000  Level Montreal Center
10:48AM 57.6333 -79.8333 225° Southwest 510 587 36,000  Level Montreal Center
10:49AM 57.5333 -80.0333 227° Southwest 510 587 36,000  Level Montreal Center
10:50AM 57.4333 -80.2167 225° Southwest 510 587 36,000  Level Montreal Center
10:51AM 57.3167 -80.3833 218° Southwest 510 587 36,000  Level Montreal Center
10:52AM 57.2167 -80.5667 225° Southwest 510 587 36,000  Level Montreal Center
10:53AM 57.1167 -80.7333 222° Southwest 510 587 36,000  Level Montreal Center
10:54AM 57.0167 -80.9333 227° Southwest 510 587 36,000  Level Montreal Center
10:55AM 56.9000 -81.1167 221° Southwest 510 587 36,000  Level Montreal Center
10:56AM 56.8000 -81.2833 222° Southwest 510 587 36,000  Level Montreal Center
10:57AM 56.6833 -81.4500 218° Southwest 510 587 36,000  Level Montreal Center
10:58AM 56.5833 -81.6167 223° Southwest 510 587 36,000  Level Montreal Center
10:59AM 56.4833 -81.7833 223° Southwest 500 575 36,000  Level Montreal Center
11:00AM 56.3833 -81.9833 228° Southwest 510 587 36,000  Level Montreal Center
11:01AM 56.2667 -82.1500 218° Southwest 510 587 36,000  Level Montreal Center
11:02AM 56.1667 -82.3167 223° Southwest 510 587 36,000  Level Montreal Center
11:03AM 56.0667 -82.4833 223° Southwest 510 587 36,000  Level Montreal Center
11:04AM 55.9333 -82.6667 218° Southwest 510 587 36,000  Level Montreal Center
11:05AM 55.8500 -82.8333 228° Southwest 510 587 36,000  Level Montreal Center
11:06AM 55.7333 -83.0000 219° Southwest 500 575 36,000  Level Montreal Center
11:07AM 55.6333 -83.1500 220° Southwest 510 587 36,000  Level Montreal Center
11:08AM 55.5167 -83.3167 219° Southwest 500 575 36,000  Level Montreal Center
11:09AM 55.4000 -83.4667 216° Southwest 500 575 36,000  Level Montreal Center
11:10AM 55.3167 -83.6333 229° Southwest 510 587 36,000  Level Montreal Center
11:11AM 55.2000 -83.7667 213° Southwest 510 587 36,000  Level Montreal Center
11:13AM 55.0000 -83.8667 196° South 500 575 36,000  Level Edmonton Center
11:14AM 54.9000 -84.0167 221° Southwest 490 564 36,000  Level Edmonton Center
11:15AM 54.8000 -84.1667 221° Southwest 500 575 36,000  Level Edmonton Center
11:16AM 54.6833 -84.3167 217° Southwest 500 575 36,000  Level Edmonton Center
11:17AM 54.5833 -84.4667 221° Southwest 500 575 36,000  Level Edmonton Center
11:18AM 54.4500 -84.6167 213° Southwest 510 587 36,000  Level Edmonton Center
11:19AM 54.3667 -84.7667 226° Southwest 510 587 36,000  Level Edmonton Center
11:20AM 54.2333 -84.9167 213° Southwest 500 575 36,000  Level Edmonton Center
11:21AM 54.1333 -85.0667 221° Southwest 500 575 36,000  Level Edmonton Center
11:22AM 54.0167 -85.2167 217° Southwest 510 587 36,000  Level Edmonton Center
11:23AM 53.9000 -85.3667 217° Southwest 500 575 36,000  Level Edmonton Center
11:24AM 53.8000 -85.5000 218° Southwest 500 575 36,000  Level Edmonton Center
11:25AM 53.6833 -85.6500 217° Southwest 500 575 36,000  Level Edmonton Center
11:26AM 53.5667 -85.7667 211° Southwest 490 564 36,000  Level Edmonton Center
11:27AM 53.4500 -85.8833 211° Southwest 490 564 36,000  Level Edmonton Center
11:28AM 53.3333 -86.0000 211° Southwest 490 564 36,000  Level Edmonton Center
11:29AM 53.2167 -86.1167 211° Southwest 500 575 36,000  Level Edmonton Center
11:30AM 53.1000 -86.2167 207° Southwest 500 575 36,000  Level Edmonton Center
11:31AM 52.9667 -86.3167 204° Southwest 490 564 36,000  Level Edmonton Center
11:32AM 52.8500 -86.4167 207° Southwest 500 575 36,000  Level Edmonton Center
11:33AM 52.7333 -86.5333 211° Southwest 490 564 36,000  Level Edmonton Center
11:34AM 52.5833 -86.6500 205° Southwest 490 564 36,000  Level Edmonton Center
11:35AM 52.4833 -86.7667 215° Southwest 490 564 36,000  Level Edmonton Center
11:36AM 52.3500 -86.8833 208° Southwest 490 564 36,000  Level Edmonton Center
11:37AM 52.2500 -86.9833 211° Southwest 490 564 36,000  Level Edmonton Center
11:38AM 52.1167 -87.0667 201° Southwest 490 564 36,000  Level Edmonton Center
11:39AM 52.0000 -87.1667 208° Southwest 490 564 36,000  Level Edmonton Center
11:40AM 51.8833 -87.2833 212° Southwest 500 575 36,000  Level Edmonton Center
11:41AM 51.7333 -87.4000 206° Southwest 500 575 36,000  Level Edmonton Center
11:42AM 51.6333 -87.5000 212° Southwest 500 575 36,000  Level Edmonton Center
11:43AM 51.5167 -87.6000 208° Southwest 500 575 36,000  Level Edmonton Center
11:44AM 51.3833 -87.7167 209° Southwest 490 564 36,000  Level Edmonton Center
11:45AM 51.2667 -87.8167 208° Southwest 500 575 36,000  Level Edmonton Center
11:46AM 51.1333 -87.9167 205° Southwest 500 575 36,000  Level Edmonton Center
11:47AM 51.0167 -88.0000 204° Southwest 500 575 36,000  Level Edmonton Center
11:48AM 50.9167 -88.1333 220° Southwest 500 575 36,000  Level Winnipeg Center
11:49AM 50.7833 -88.2500 209° Southwest 500 575 36,000  Level Winnipeg Center
11:50AM 50.6667 -88.3500 209° Southwest 500 575 36,000  Level Winnipeg Center
11:51AM 50.5500 -88.4500 209° Southwest 500 575 36,000  Level Winnipeg Center
11:52AM 50.4167 -88.5500 206° Southwest 500 575 36,000  Level Winnipeg Center
11:53AM 50.3000 -88.6167 200° South 500 575 36,000  Level Winnipeg Center
11:54AM 50.1667 -88.7333 209° Southwest 500 575 36,000  Level Winnipeg Center
11:55AM 50.0500 -88.8167 205° Southwest 500 575 36,000  Level Winnipeg Center
11:56AM 49.9333 -88.9167 209° Southwest 500 575 36,000  Level Winnipeg Center
11:57AM 49.8000 -89.0167 206° Southwest 500 575 36,000  Level Winnipeg Center
11:58AM 49.6667 -89.1167 206° Southwest 500 575 36,000  Level Winnipeg Center
11:59AM 49.5500 -89.2167 209° Southwest 500 575 36,000  Level Winnipeg Center
12:00PM 49.4333 -89.3167 209° Southwest 500 575 36,000  Level Winnipeg Center
12:01PM 49.2833 -89.4167 204° Southwest 510 587 36,000  Level Winnipeg Center
12:06PM 48.6130 -89.9750 204° Southwest 509 586 36,000  Level FlightAware
12:07PM 48.5210 -90.0420 206° Southwest 510 587 36,000  Level FlightAware
12:08PM 48.4260 -90.1120 206° Southwest 511 588 36,000  Level FlightAware
12:08PM 48.3450 -90.1710 206° Southwest 512 589 36,000  Level FlightAware
12:09PM 48.2580 -90.2290 204° Southwest 512 589 36,000  Level FlightAware
12:09PM 48.1760 -90.2830 204° Southwest 512 589 36,000  Level FlightAware
12:10PM 48.0830 -90.3430 203° Southwest 512 589 36,000  Level FlightAware
12:11PM 48.0070 -90.3930 204° Southwest 510 587 36,000  Level FlightAware
12:11PM 47.9340 -90.4410 204° Southwest 509 586 36,000  Level FlightAware
12:12PM 47.8110 -90.5210 204° Southwest 509 586 36,000  Level FlightAware
12:13PM 47.7190 -90.5810 204° Southwest 507 583 36,000  Level FlightAware
12:14PM 47.6350 -90.6350 203° Southwest 507 583 36,000  Level FlightAware
12:14PM 47.5550 -90.6870 204° Southwest 508 585 36,000  Level FlightAware
12:15PM 47.4640 -90.7450 203° Southwest 507 583 36,000  Level FlightAware
12:16PM 47.3820 -90.7970 203° Southwest 509 586 36,000  Level FlightAware
12:16PM 47.3010 -90.8490 204° Southwest 509 586 36,000  Level FlightAware
12:17PM 47.2050 -90.9100 203° Southwest 511 588 36,000  Level FlightAware
12:18PM 47.1250 -90.9600 203° Southwest 510 587 36,000  Level FlightAware
12:18PM 47.0240 -91.0250 204° Southwest 509 586 36,000  Level FlightAware
12:19PM 46.9360 -91.0790 203° Southwest 509 586 36,000  Level FlightAware
12:19PM 46.8860 -91.1110 204° Southwest 508 585 36,000  Level FlightAware
12:20PM 46.7810 -91.1760 203° Southwest 508 585 36,000  Level FlightAware
12:21PM 46.6950 -91.2300 203° Southwest 508 585 36,000  Level FlightAware
12:22PM 46.6080 -91.2830 203° Southwest 508 585 36,000  Level FlightAware
12:22PM 46.5120 -91.3430 203° Southwest 507 583 36,000  Level FlightAware
12:23PM 46.4220 -91.3980 203° Southwest 506 582 36,000  Level FlightAware
12:24PM 46.3270 -91.4570 203° Southwest 506 582 36,000  Level FlightAware
12:24PM 46.2420 -91.5080 203° Southwest 506 582 36,000  Level FlightAware
12:25PM 46.1580 -91.5590 203° Southwest 510 587 36,000  Level FlightAware
12:26PM 46.0720 -91.6110 203° Southwest 510 587 36,000  Level FlightAware
12:26PM 45.9780 -91.6680 203° Southwest 507 583 36,000  Level FlightAware
12:27PM 45.8910 -91.7200 203° Southwest 507 583 36,000  Level FlightAware
12:28PM 45.7990 -91.7750 203° Southwest 508 585 36,000  Level FlightAware
12:28PM 45.7080 -91.8300 203° Southwest 508 585 36,000  Level FlightAware
12:29PM 45.6220 -91.8810 203° Southwest 509 586 36,000  Level FlightAware
12:30PM 45.5340 -91.9340 203° Southwest 511 588 36,000  Level FlightAware
12:30PM 45.4470 -91.9850 202° Southwest 512 589 36,000  Level FlightAware
12:31PM 45.3660 -92.0320 202° Southwest 512 589 36,000  Level FlightAware
12:32PM 45.2740 -92.0870 203° Southwest 514 592 36,000  Level FlightAware
12:33PM 45.1730 -92.1460 202° Southwest 514 592 36,000  Level FlightAware
12:33PM 45.0750 -92.2030 202° Southwest 514 592 36,000  Level FlightAware
12:34PM 44.9860 -92.2540 202° Southwest 513 590 36,000  Level FlightAware
12:35PM 44.9040 -92.3020 203° Southwest 514 592 36,000  Level FlightAware
12:35PM 44.8100 -92.3560 202° Southwest 515 593 36,000  Level FlightAware
12:36PM 44.7110 -92.4130 202° Southwest 516 594 36,000  Level FlightAware
12:37PM 44.6130 -92.4690 202° Southwest 517 595 36,000  Level FlightAware
12:37PM 44.5250 -92.5190 202° Southwest 518 596 36,000  Level FlightAware
12:38PM 44.4370 -92.5700 202° Southwest 519 597 36,000  Level FlightAware
12:39PM 44.3440 -92.6220 202° Southwest 516 594 36,000  Level FlightAware
12:39PM 44.2670 -92.6660 202° Southwest 515 593 36,000  Level FlightAware
12:40PM 44.1580 -92.7270 202° Southwest 514 592 36,000  Level FlightAware
12:41PM 44.0630 -92.7810 202° Southwest 512 589 36,000  Level FlightAware
12:42PM 43.9730 -92.8310 202° Southwest 513 590 36,000  Level FlightAware
12:42PM 43.8900 -92.8770 202° Southwest 515 593 36,000  Level FlightAware
12:43PM 43.8080 -92.9230 202° Southwest 519 597 36,000  Level FlightAware
12:44PM 43.7120 -92.9760 202° Southwest 519 597 36,000  Level FlightAware
12:44PM 43.6320 -93.0200 202° Southwest 519 597 36,000  Level FlightAware
12:45PM 43.5430 -93.0690 202° Southwest 518 596 36,000  Level FlightAware
12:46PM 43.4480 -93.1210 202° Southwest 517 595 36,000  Level FlightAware
12:46PM 43.3450 -93.1780 202° Southwest 518 596 36,000  Level FlightAware
12:47PM 43.2580 -93.2250 201° Southwest 517 595 36,000  Level FlightAware
12:48PM 43.1700 -93.2730 202° Southwest 517 595 36,000  Level FlightAware
12:48PM 43.0670 -93.3290 202° Southwest 518 596 36,000  Level FlightAware
12:49PM 42.9850 -93.3730 201° Southwest 517 595 36,000  Level FlightAware
12:50PM 42.9000 -93.4190 202° Southwest 518 596 36,000  Level FlightAware
12:50PM 42.8010 -93.4720 201° Southwest 519 597 36,000  Level FlightAware
12:51PM 42.7110 -93.5200 201° Southwest 516 594 36,000  Level FlightAware
12:52PM 42.6150 -93.5710 201° Southwest 515 593 36,000  Level FlightAware
12:53PM 42.5230 -93.6200 201° Southwest 520 598 36,000  Level FlightAware
12:53PM 42.4280 -93.6700 201° Southwest 520 598 36,000  Level FlightAware
12:54PM 42.3440 -93.7150 202° Southwest 519 597 36,000  Level FlightAware
12:55PM 42.2560 -93.7610 201° Southwest 518 596 36,000  Level FlightAware
12:55PM 42.1730 -93.8050 201° Southwest 520 598 36,000  Level FlightAware
12:56PM 42.0710 -93.8580 201° Southwest 521 600 36,000  Level FlightAware
12:57PM 41.9760 -93.9070 201° Southwest 522 601 36,000  Level FlightAware
12:57PM 41.8940 -93.9500 201° Southwest 525 604 36,000  Level FlightAware
12:58PM 41.7910 -94.0030 201° Southwest 524 603 36,000  Level FlightAware
12:59PM 41.6960 -94.0530 201° Southwest 521 600 36,000  Level FlightAware
12:59PM 41.5920 -94.1060 201° Southwest 516 594 36,000  Level FlightAware
01:00PM 41.5100 -94.1490 201° Southwest 514 592 36,000  Level FlightAware
01:01PM 41.3860 -94.2120 201° Southwest 514 592 36,000  Level FlightAware
01:02PM 41.3180 -94.2470 201° Southwest 514 592 36,000  Level FlightAware
01:03PM 41.1440 -94.3350 201° Southwest 524 603 36,000  Level FlightAware
01:03PM 41.0550 -94.3800 201° Southwest 527 606 36,000  Level FlightAware
01:04PM 40.9540 -94.4310 201° Southwest 528 608 36,000  Level FlightAware
01:05PM 40.8760 -94.4690 200° South 528 608 36,000  Level FlightAware
01:05PM 40.8050 -94.5020 199° South 528 608 36,000  Level FlightAware
01:06PM 40.6520 -94.5810 201° Southwest 524 603 36,000  Level FlightAware
01:07PM 40.5540 -94.6310 201° Southwest 520 598 36,000  Level FlightAware
01:08PM 40.4660 -94.6740 200° South 520 598 36,000  Level FlightAware
01:08PM 40.3800 -94.7170 201° Southwest 521 600 36,000  Level FlightAware
01:09PM 40.2680 -94.7720 201° Southwest 519 597 36,000  Level FlightAware
01:10PM 40.1870 -94.8120 201° Southwest 520 598 36,000  Level FlightAware
01:10PM 40.0950 -94.8570 201° Southwest 522 601 36,000  Level FlightAware
01:11PM 40.0120 -94.8980 201° Southwest 524 603 36,000  Level FlightAware
01:12PM 39.9150 -94.9450 200° South 525 604 36,000  Level FlightAware
01:13PM 39.8070 -94.9980 201° Southwest 524 603 36,000  Level FlightAware
01:13PM 39.7120 -95.0440 200° South 523 602 36,000  Level FlightAware
01:14PM 39.6260 -95.0850 200° South 522 601 36,000  Level FlightAware
01:15PM 39.5220 -95.1360 201° Southwest 520 598 36,000  Level FlightAware
01:15PM 39.4410 -95.1740 200° South 519 597 36,000  Level FlightAware
01:16PM 39.3470 -95.2200 201° Southwest 519 597 36,000  Level FlightAware
01:17PM 39.2620 -95.2600 200° South 519 597 36,000  Level FlightAware
01:17PM 39.1830 -95.2980 200° South 519 597 36,000  Level FlightAware
01:18PM 39.1000 -95.3370 200° South 519 597 36,000  Level FlightAware
01:19PM 38.9900 -95.3890 200° South 521 600 36,000  Level FlightAware
01:19PM 38.8940 -95.4350 200° South 521 600 36,000  Level FlightAware
01:20PM 38.7960 -95.4810 200° South 522 601 36,000  Level FlightAware
01:21PM 38.7140 -95.5190 200° South 522 601 36,000  Level FlightAware
01:21PM 38.6110 -95.5680 200° South 522 601 36,000  Level FlightAware
01:22PM 38.5320 -95.6040 200° South 522 601 36,000  Level FlightAware
01:23PM 38.4360 -95.6490 200° South 521 600 36,000  Level FlightAware
01:23PM 38.3370 -95.6950 200° South 523 602 36,000  Level FlightAware
01:24PM 38.2550 -95.7340 200° South 524 603 36,000  Level FlightAware
01:25PM 38.1650 -95.7750 200° South 527 606 36,000  Level FlightAware
01:25PM 38.0630 -95.8220 200° South 527 606 36,000  Level FlightAware
01:26PM 37.9880 -95.8570 200° South 527 606 36,000  Level FlightAware
01:27PM 37.8870 -95.9030 200° South 529 609 36,000  Level FlightAware
01:27PM 37.7860 -95.9490 200° South 529 609 36,000  Level FlightAware
01:28PM 37.6940 -95.9910 200° South 527 606 36,000  Level FlightAware
01:29PM 37.5940 -96.0360 200° South 527 606 36,000  Level FlightAware
01:29PM 37.5030 -96.0780 200° South 529 609 36,000  Level FlightAware
01:30PM 37.4000 -96.1240 200° South 528 608 36,000  Level FlightAware
01:31PM 37.3190 -96.1610 200° South 526 605 36,000  Level FlightAware
01:31PM 37.2270 -96.2020 200° South 527 606 36,000  Level FlightAware
01:32PM 37.1350 -96.2440 200° South 527 606 36,000  Level FlightAware
01:33PM 37.0440 -96.2840 199° South 527 606 36,000  Level FlightAware
01:33PM 36.9490 -96.3270 200° South 530 610 36,000  Level FlightAware
01:34PM 36.8590 -96.3670 200° South 529 609 36,000  Level FlightAware
01:35PM 36.7660 -96.4080 199° South 528 608 36,000  Level FlightAware
01:36PM 36.6680 -96.4520 200° South 527 606 36,000  Level FlightAware
01:36PM 36.5730 -96.4940 200° South 527 606 36,000  Level FlightAware
01:37PM 36.4710 -96.5390 200° South 528 608 36,000  Level FlightAware
01:38PM 36.3930 -96.5730 199° South 528 608 36,000  Level FlightAware
01:38PM 36.3170 -96.6060 199° South 528 608 36,000  Level FlightAware
01:39PM 36.2080 -96.6540 200° South 524 603 36,000  Level FlightAware
01:40PM 36.0760 -96.7110 199° South 520 598 36,000  Level FlightAware
01:41PM 35.9540 -96.7640 199° South 519 597 36,000  Level FlightAware
01:42PM 35.8490 -96.8100 200° South 522 601 36,000  Level FlightAware
01:42PM 35.7740 -96.8420 199° South 522 601 36,000  Level FlightAware
01:43PM 35.6830 -96.8810 199° South 522 601 36,000  Level FlightAware
01:44PM 35.5510 -96.9380 199° South 523 602 36,000  Level FlightAware
01:45PM 35.4380 -96.9870 199° South 523 602 36,000  Level FlightAware
01:46PM 35.3150 -97.0390 199° South 523 602 36,000  Level FlightAware
01:46PM 35.2120 -97.0830 199° South 524 603 36,000 -360 Level FlightAware
01:47PM 35.1210 -97.1220 199° South 515 593 35,600 -1,200 Descending FlightAware
01:47PM 35.0410 -97.1560 199° South 507 583 34,500 -1,860 Descending FlightAware
01:48PM 34.9560 -97.1920 199° South 495 570 33,300 -1,980 Descending FlightAware
01:49PM 34.8680 -97.2290 199° South 483 556 32,000 -1,860 Descending FlightAware
01:49PM 34.7780 -97.2670 199° South 472 543 30,700 -1,800 Descending FlightAware
01:50PM 34.6800 -97.3080 199° South 462 532 29,300 -1,740 Descending FlightAware
01:51PM 34.5960 -97.3430 199° South 454 522 28,100 -1,740 Descending FlightAware
01:52PM 34.5150 -97.3780 200° South 446 513 26,900 -1,740 Descending FlightAware
01:52PM 34.4440 -97.4070 199° South 438 504 25,900 -1,680 Descending FlightAware
01:53PM 34.3640 -97.4400 199° South 428 493 24,700 -1,440 Descending FlightAware
01:54PM 34.2930 -97.4700 199° South 419 482 24,000 -780 Descending FlightAware
01:55PM 34.1860 -97.5210 202° Southwest 420 483 23,500 -1,200 Descending FlightAware
01:55PM 34.1150 -97.5550 202° Southwest 420 483 22,100 -1,800 Descending FlightAware
01:56PM 34.0330 -97.5890 199° South 419 482 21,000 -1,500 Descending FlightAware
01:57PM 33.9550 -97.6020 188° South 408 470 20,000 -1,500 Descending FlightAware
01:57PM 33.8780 -97.6070 183° South 396 456 19,000 -1,500 Descending FlightAware
01:58PM 33.8020 -97.6120 183° South 386 444 17,900 -1,560 Descending FlightAware
01:59PM 33.7280 -97.6170 183° South 375 432 16,900 -1,440 Descending FlightAware
02:00PM 33.6520 -97.6220 183° South 369 425 15,900 -1,380 Descending FlightAware
02:00PM 33.5840 -97.6270 184° South 384 442 15,000 -1,440 Descending FlightAware
02:01PM 33.5170 -97.6320 184° South 377 434 14,100 -1,440 Descending FlightAware
02:02PM 33.4420 -97.6370 183° South 367 422 13,100 -1,380 Descending FlightAware
02:02PM 33.3850 -97.6310 175° South 360 414 12,300 -1,500 Descending FlightAware
02:02PM 33.3550 -97.6080 147° Southeast 351 404 11,700 -1,200 Descending FlightAware
02:03PM 33.3090 -97.5540 136° Southeast 331 381 11,100 -600 Descending FlightAware
02:04PM 33.2680 -97.5050 135° Southeast 307 353 10,900 -180 Descending FlightAware
02:04PM 33.2250 -97.4550 136° Southeast 307 353 10,900  Level FlightAware
02:05PM 33.1800 -97.4020 135° Southeast 308 354 10,900  Level FlightAware
02:06PM 33.1370 -97.3520 136° Southeast 311 358 10,900  Level FlightAware
02:07PM 33.0940 -97.3020 136° Southeast 311 358 10,900  Level FlightAware
02:07PM 33.0570 -97.2590 136° Southeast 284 327 10,900  Level FlightAware
02:08PM 33.0150 -97.2100 136° Southeast 266 306 10,900  Level FlightAware
02:09PM 32.9770 -97.1740 142° Southeast 269 310 10,900  Level FlightAware
02:09PM 32.9580 -97.1700 170° South 273 314 10,900 -360 Level FlightAware
02:10PM 32.9070 -97.1700 180° South 271 312 10,600 -780 Descending FlightAware
02:10PM 32.8690 -97.1700 180° South 268 308 10,000 -1,260 Descending FlightAware
02:11PM 32.8270 -97.1700 180° South 263 303 9,300 -1,320 Descending FlightAware
02:11PM 32.8070 -97.1690 178° South 266 306 8,900 -1,440 Descending FlightAware
02:11PM 32.7790 -97.1690 180° South 267 307 8,400 -1,260 Descending FlightAware
02:12PM 32.7460 -97.1690 180° South 262 302 7,900 -1,140 Descending FlightAware
02:12PM 32.7250 -97.1680 178° South 258 297 7,600 -1,140 Descending FlightAware
02:12PM 32.6970 -97.1680 180° South 256 295 7,100 -1,260 Descending FlightAware
02:13PM 32.6570 -97.1670 179° South 252 290 6,400 -1,140 Descending FlightAware
02:13PM 32.6460 -97.1650 171° South 245 282 6,300 -1,020 Descending FlightAware
02:14PM 32.6300 -97.1490 140° Southeast 215 247 5,900 -1,020 Descending FlightAware
02:14PM 32.6260 -97.1380 113° Southeast 199 229 5,800 -480 Descending FlightAware
02:14PM 32.6260 -97.1110 90° East 182 209 5,600 -840 Descending FlightAware
02:15PM 32.6270 -97.0800 88° East 178 205 5,000 -1,380 Descending FlightAware
02:15PM 32.6290 -97.0730 71° East 176 203 4,800 -1,140 Descending FlightAware
02:15PM 32.6330 -97.0670 52° Northeast 176 203 4,700 -1,260 Descending FlightAware
02:15PM 32.6450 -97.0600 26° Northeast 175 201 4,300 -1,320 Descending FlightAware
02:15PM 32.6580 -97.0560 15° North 181 208 4,000 -1,320 Descending FlightAware
02:16PM 32.6680 -97.0560 360° North 185 213 3,700 -1,140 Descending FlightAware
02:16PM 32.6770 -97.0560 360° North 181 208 3,600 -540 Descending FlightAware
02:17PM 32.7430 -97.0560 360° North 176 203 2,900 -540 Descending FlightAware
02:18PM 32.7680 -97.0560 360° North 177 204 2,600 -840 Descending FlightAware
02:18PM 32.7910 -97.0550 North 175 201 2,100 -960 Descending FlightAware
02:19PM 32.8200 -97.0550 360° North 162 186 1,600 -720 Descending FlightAware
02:20PM 32.8620 -97.0550 360° North 150 173 900 -540 Descending FlightAware
02:20PM 32.8770 -97.0550 360° North 150 173 900  Level FlightAware